Aktuální počasí v Tlučné 

Teplota 20.6 °C
Minimální teplota 14.0 °C Maximální teplota 23.5 °C
Teplota rosného bodu 12.1 °C Pocitová teplota 19.4 °C
Tlak 1014.9 hPa
Směr a rychlost větru WSW 3.0 m/s
» 6.7 m/s
vlhkost 58.1 %
Teplota 0.0  mm/h
SlunceUV5.171 dnes zítra
↑ 06:04 ↑ 06:05
↓ 20:16 ↓ 20:14
   
Měsíc dnes zítra
↑ 03:05 ↑ 04:15
↓ 18:48 ↓ 19:32
   
Historie naměřených hodnot
 
  LKLN Metar
  LKLN Metar
2017/08/19 16:00
LKLN 191600Z AUTO 27006KT 220V330 9999 SCT058 BKN070 21/09 Q1019
Rychlost a směr větru 220° < 270° > 330°
11.1 km/h
--
10 km
32805.1 ft
Skoro zataženo (2134 m) Polojasno (1768 m)
Teplota 21 °C
Rosný bod 9°C
 
Tlak 1019 hPa
764.3 mmHg
 
  YR.no meteogram
  YR.no meteogram
Meteogram YR.no
  Kalendář alergenů
  Kalendář alergenů
kalendar
  IN-Pocasi.cz
  IN-Pocasi.cz
In-Pocasi logo




  PocasiIdnes     CHMI     MeteoPress     Radar     Radar2  


  Valid XHTML 1.0 Transitional  


Provozni a servisni denik

Popis

ČKD / FAQ